Time;durP1;ratioP1;P1;durP2;ratioP2;P2;SDS_P1;SDS_P2;PMS_P1;PMS_P2;Temp;Humidity;BMP_temperature;BMP_pressure;BME280_temperature;BME280_humidity;BME280_pressure;Samples;Min_cycle;Max_cycle;Signal;HPM_P1;HPM_P2
2022/10/30 00:02:00;;;;;;;20.95;13.23;;;15.40;99.90;;;;;;5092231;28;20031;-64
2022/10/30 00:04:26;;;;;;;22.48;13.90;;;15.40;99.90;;;;;;5092934;28;20103;-64
2022/10/30 00:06:51;;;;;;;18.52;13.02;;;15.30;99.90;;;;;;5092072;28;20073;-64
2022/10/30 00:09:17;;;;;;;20.10;12.85;;;15.40;99.90;;;;;;5092585;28;20020;-64
2022/10/30 00:11:43;;;;;;;22.05;13.45;;;15.30;99.90;;;;;;5092333;28;20497;-64
2022/10/30 00:14:08;;;;;;;20.98;13.80;;;15.20;99.90;;;;;;5092844;28;20044;-64
2022/10/30 00:16:34;;;;;;;22.23;14.40;;;15.20;99.90;;;;;;5092387;28;20457;-63
2022/10/30 00:19:00;;;;;;;20.08;13.55;;;15.20;99.90;;;;;;5092430;28;20020;-64
2022/10/30 00:21:26;;;;;;;19.10;13.45;;;15.20;99.90;;;;;;5091702;28;20586;-64
2022/10/30 00:23:52;;;;;;;17.90;13.35;;;15.20;99.90;;;;;;5092244;28;20020;-64
2022/10/30 00:26:20;;;;;;;19.35;14.20;;;15.10;99.90;;;;;;5092169;28;20085;-64
2022/10/30 00:28:53;;;;;;;22.80;14.63;;;15.10;99.90;;;;;;5092306;28;20025;-63
2022/10/30 00:31:20;;;;;;;20.35;15.70;;;15.10;99.90;;;;;;5092445;28;20032;-64
2022/10/30 00:33:53;;;;;;;24.80;15.10;;;15.10;99.90;;;;;;5091787;28;20035;-64
2022/10/30 00:36:20;;;;;;;20.50;14.60;;;15.10;99.90;;;;;;5071555;28;20036;-63
2022/10/30 00:38:45;;;;;;;25.23;14.98;;;15.10;99.90;;;;;;5072157;28;20059;-64
2022/10/30 00:41:14;;;;;;;22.00;14.48;;;15.00;99.90;;;;;;5071629;28;20090;-64
2022/10/30 00:43:40;;;;;;;24.05;15.60;;;15.00;99.90;;;;;;5071817;28;20031;-64
2022/10/30 00:46:34;;;;;;;21.83;14.95;;;14.90;99.90;;;;;;5071822;28;20021;-64
2022/10/30 00:49:14;;;;;;;20.25;14.68;;;14.90;99.90;;;;;;5072168;28;20017;-64
2022/10/30 00:51:46;;;;;;;25.10;15.05;;;15.00;99.90;;;;;;5071786;28;20033;-63
2022/10/30 00:54:15;;;;;;;23.00;16.02;;;14.90;99.90;;;;;;5071488;28;20032;-64
2022/10/30 00:56:41;;;;;;;23.52;16.10;;;14.90;99.90;;;;;;5072037;28;20052;-64
2022/10/30 00:59:10;;;;;;;22.80;15.30;;;14.80;99.90;;;;;;5071861;28;20021;-64
2022/10/30 01:01:38;;;;;;;23.08;15.35;;;14.90;99.90;;;;;;5071541;28;20024;-64
2022/10/30 01:04:06;;;;;;;30.10;16.13;;;14.80;99.90;;;;;;5072005;28;20024;-64
2022/10/30 01:06:35;;;;;;;22.50;15.30;;;14.80;99.90;;;;;;5071197;28;20487;-64
2022/10/30 01:09:02;;;;;;;20.38;15.00;;;14.80;99.90;;;;;;5071976;28;20027;-64
2022/10/30 01:11:28;;;;;;;22.48;15.80;;;14.70;99.90;;;;;;5071544;28;20028;-64
2022/10/30 01:13:57;;;;;;;27.25;16.02;;;14.80;99.90;;;;;;5071394;28;20028;-64
2022/10/30 01:16:28;;;;;;;20.00;15.05;;;14.80;99.90;;;;;;5071550;28;20032;-64
2022/10/30 01:19:02;;;;;;;23.70;15.30;;;14.80;99.90;;;;;;5071073;28;20036;-64
2022/10/30 01:22:04;;;;;;;22.67;16.00;;;14.70;99.90;;;;;;5091779;28;20433;-64
2022/10/30 01:24:38;;;;;;;24.40;15.50;;;14.80;99.90;;;;;;5091494;28;20042;-64
2022/10/30 01:27:23;;;;;;;22.98;14.75;;;14.80;99.90;;;;;;5092818;28;20024;-64
2022/10/30 01:30:33;;;;;;;22.00;14.65;;;14.80;99.90;;;;;;5095624;28;20453;-64
2022/10/30 01:33:23;;;;;;;22.95;16.05;;;14.80;99.90;;;;;;5095519;28;20432;-64
2022/10/30 01:36:08;;;;;;;20.33;15.30;;;14.80;99.90;;;;;;5095425;28;20110;-64
2022/10/30 01:38:55;;;;;;;21.15;15.10;;;14.80;99.90;;;;;;5095361;28;20084;-64
2022/10/30 01:41:21;;;;;;;20.05;15.35;;;14.80;99.90;;;;;;5095084;28;20044;-63
2022/10/30 01:43:51;;;;;;;26.67;16.48;;;14.80;99.90;;;;;;5095860;28;20163;-64
2022/10/30 01:46:40;;;;;;;19.52;16.25;;;14.70;99.90;;;;;;5095370;28;20390;-64
2022/10/30 01:49:14;;;;;;;20.70;15.10;;;14.80;99.90;;;;;;5095085;28;20474;-64
2022/10/30 01:51:43;;;;;;;21.15;16.25;;;14.80;99.90;;;;;;5095166;28;20089;-64
2022/10/30 01:54:20;;;;;;;22.30;16.38;;;14.80;99.90;;;;;;5095149;28;20502;-64
2022/10/30 01:57:01;;;;;;;24.95;16.27;;;14.70;99.90;;;;;;5095077;28;20043;-64
2022/10/30 01:59:44;;;;;;;23.05;16.52;;;14.70;99.90;;;;;;5095497;28;20099;-64
2022/10/30 02:02:11;;;;;;;22.73;17.00;;;14.70;99.90;;;;;;5094582;28;20486;-64
2022/10/30 02:04:37;;;;;;;22.90;16.88;;;14.50;99.90;;;;;;5094989;28;20103;-64
2022/10/30 02:07:03;;;;;;;22.48;16.38;;;14.50;99.90;;;;;;5095330;28;20027;-64
2022/10/30 02:09:29;;;;;;;24.15;18.38;;;14.50;99.90;;;;;;5094809;28;20089;-64
2022/10/30 02:11:55;;;;;;;22.70;17.88;;;14.40;99.90;;;;;;5095255;28;20031;-64
2022/10/30 02:14:26;;;;;;;22.30;17.30;;;14.40;99.90;;;;;;5094744;28;20024;-64
2022/10/30 02:16:55;;;;;;;24.85;17.25;;;14.40;99.90;;;;;;5094241;28;20032;-64
2022/10/30 02:19:21;;;;;;;22.83;17.17;;;14.40;99.90;;;;;;5094904;28;20013;-64
2022/10/30 02:21:48;;;;;;;25.25;16.88;;;14.40;99.90;;;;;;5094814;28;20027;-64
2022/10/30 02:24:13;;;;;;;23.92;16.98;;;14.40;99.90;;;;;;5094601;28;20047;-64
2022/10/30 02:26:39;;;;;;;23.23;16.63;;;14.40;99.90;;;;;;5094926;28;20085;-63
2022/10/30 02:29:05;;;;;;;21.95;16.27;;;14.40;99.90;;;;;;5094562;28;20024;-64
2022/10/30 02:31:30;;;;;;;23.58;16.85;;;14.40;99.90;;;;;;5094010;28;20032;-63
2022/10/30 02:33:56;;;;;;;26.17;16.95;;;14.40;99.90;;;;;;5094324;28;20436;-64
2022/10/30 02:36:22;;;;;;;22.55;15.77;;;14.40;99.90;;;;;;5094803;28;20062;-64
2022/10/30 02:38:48;;;;;;;22.80;16.40;;;14.40;99.90;;;;;;5093160;28;20062;-64
2022/10/30 02:41:13;;;;;;;22.02;17.63;;;14.50;99.90;;;;;;5094140;28;20040;-64
2022/10/30 02:43:39;;;;;;;27.65;17.85;;;14.50;99.90;;;;;;5094253;28;20496;-64
2022/10/30 02:46:05;;;;;;;22.27;17.67;;;14.50;99.90;;;;;;5093830;28;20024;-64
2022/10/30 02:48:31;;;;;;;23.52;16.17;;;14.50;99.90;;;;;;5094226;28;20038;-64
2022/10/30 02:51:01;;;;;;;22.77;16.63;;;14.50;99.90;;;;;;5093953;28;20024;-64
2022/10/30 02:53:26;;;;;;;22.80;16.83;;;14.50;99.90;;;;;;5094113;28;20466;-64
2022/10/30 02:55:52;;;;;;;25.58;17.80;;;14.40;99.90;;;;;;5093972;28;20103;-63
2022/10/30 02:58:18;;;;;;;23.88;16.90;;;14.50;99.90;;;;;;5094152;28;20051;-64
2022/10/30 03:00:44;;;;;;;24.92;17.40;;;14.40;99.90;;;;;;5093827;28;20098;-64
2022/10/30 03:03:09;;;;;;;22.23;16.92;;;14.40;99.90;;;;;;5093857;28;20031;-64
2022/10/30 03:05:35;;;;;;;22.60;16.10;;;14.40;99.90;;;;;;5093955;28;20057;-63
2022/10/30 03:08:01;;;;;;;24.38;18.38;;;14.50;99.90;;;;;;5093866;28;20471;-64
2022/10/30 03:10:26;;;;;;;25.83;17.40;;;14.50;99.90;;;;;;5093931;28;20111;-64
2022/10/30 03:12:52;;;;;;;22.90;16.98;;;14.50;99.90;;;;;;5093628;28;20035;-64
2022/10/30 03:15:18;;;;;;;25.52;17.02;;;14.50;99.90;;;;;;5093490;28;20035;-64
2022/10/30 03:17:44;;;;;;;24.08;16.83;;;14.50;99.90;;;;;;5093683;28;20032;-64
2022/10/30 03:20:10;;;;;;;22.15;15.90;;;14.50;99.90;;;;;;5093320;28;20035;-64
2022/10/30 03:22:35;;;;;;;25.80;17.58;;;14.50;99.90;;;;;;5093864;28;20028;-64
2022/10/30 03:25:01;;;;;;;24.05;17.08;;;14.50;99.90;;;;;;5093485;28;20020;-64
2022/10/30 03:27:27;;;;;;;22.40;17.20;;;14.50;99.90;;;;;;5093320;28;20028;-64
2022/10/30 03:29:52;;;;;;;25.42;17.70;;;14.50;99.90;;;;;;5093291;28;20129;-64
2022/10/30 03:32:18;;;;;;;22.10;16.85;;;14.50;99.90;;;;;;5093323;28;20069;-64
2022/10/30 03:34:44;;;;;;;23.67;17.20;;;14.40;99.90;;;;;;5092984;28;20034;-64
2022/10/30 03:37:10;;;;;;;25.25;18.20;;;14.40;99.90;;;;;;5093185;28;20036;-64
2022/10/30 03:39:35;;;;;;;25.77;18.20;;;14.50;99.90;;;;;;5093103;28;20051;-64
2022/10/30 03:42:01;;;;;;;28.02;18.65;;;14.40;99.90;;;;;;5092916;28;20414;-64
2022/10/30 03:44:26;;;;;;;24.25;18.40;;;14.50;99.90;;;;;;5091552;28;20020;-64
2022/10/30 03:46:52;;;;;;;23.55;18.25;;;14.40;99.90;;;;;;5092876;28;20016;-64
2022/10/30 03:49:18;;;;;;;25.58;18.38;;;14.40;99.90;;;;;;5092997;28;20032;-64
2022/10/30 03:51:43;;;;;;;21.85;17.33;;;14.40;99.90;;;;;;5093017;28;20515;-64
2022/10/30 03:54:09;;;;;;;26.13;17.98;;;14.40;99.90;;;;;;5092891;28;20028;-64
2022/10/30 03:56:35;;;;;;;20.25;17.50;;;14.40;99.90;;;;;;5092926;28;20054;-64
2022/10/30 03:59:00;;;;;;;26.50;18.02;;;14.40;99.90;;;;;;5092292;28;20055;-64
2022/10/30 04:01:26;;;;;;;28.63;19.70;;;14.40;99.90;;;;;;5092783;28;20102;-63
2022/10/30 04:03:52;;;;;;;26.08;19.17;;;14.40;99.90;;;;;;5093066;28;20107;-64
2022/10/30 04:06:17;;;;;;;22.63;18.33;;;14.40;99.90;;;;;;5092761;28;20024;-64
2022/10/30 04:08:43;;;;;;;24.55;19.02;;;14.30;99.90;;;;;;5092586;28;20032;-63
2022/10/30 04:11:10;;;;;;;30.67;19.60;;;14.30;99.90;;;;;;5093258;28;20421;-64
2022/10/30 04:13:36;;;;;;;31.92;19.67;;;14.30;99.90;;;;;;5092077;28;20028;-64
2022/10/30 04:16:02;;;;;;;23.23;17.88;;;14.30;99.90;;;;;;5092422;28;20024;-63
2022/10/30 04:18:28;;;;;;;29.85;19.15;;;14.30;99.90;;;;;;5092523;28;20032;-64
2022/10/30 04:20:54;;;;;;;25.50;19.15;;;14.30;99.90;;;;;;5092171;28;20031;-63
2022/10/30 04:23:21;;;;;;;27.50;20.48;;;14.40;99.90;;;;;;5092531;28;20032;-64
2022/10/30 04:25:47;;;;;;;24.73;18.65;;;14.30;99.90;;;;;;5092754;28;20360;-64
2022/10/30 04:28:13;;;;;;;28.30;19.45;;;14.30;99.90;;;;;;5091845;28;20050;-64
2022/10/30 04:30:39;;;;;;;28.27;19.42;;;14.30;99.90;;;;;;5092229;28;20024;-64
2022/10/30 04:33:09;;;;;;;26.50;20.58;;;14.30;99.90;;;;;;5092178;28;20020;-64
2022/10/30 04:35:36;;;;;;;25.08;18.67;;;14.30;99.90;;;;;;5092198;28;20016;-64
2022/10/30 04:38:04;;;;;;;29.13;19.15;;;14.30;99.90;;;;;;5092055;28;20036;-63
2022/10/30 04:40:32;;;;;;;26.90;18.95;;;14.30;99.90;;;;;;5091938;28;20036;-64
2022/10/30 04:42:58;;;;;;;28.50;19.75;;;14.30;99.90;;;;;;5091770;28;20032;-64
2022/10/30 04:45:24;;;;;;;27.05;19.50;;;14.30;99.90;;;;;;5092146;28;20027;-64
2022/10/30 04:47:50;;;;;;;25.38;18.92;;;14.30;99.90;;;;;;5092327;28;20024;-64
2022/10/30 04:50:16;;;;;;;29.27;20.75;;;14.30;99.90;;;;;;5091567;28;20040;-63
2022/10/30 04:52:42;;;;;;;26.55;20.27;;;14.30;99.90;;;;;;5092525;28;20016;-64
2022/10/30 04:55:09;;;;;;;26.13;19.75;;;14.30;99.90;;;;;;5092062;28;20380;-64
2022/10/30 04:57:35;;;;;;;25.33;19.83;;;14.30;99.90;;;;;;5090082;28;20032;-64
2022/10/30 05:00:04;;;;;;;26.55;19.05;;;14.40;99.90;;;;;;5091790;28;20020;-63
2022/10/30 05:02:29;;;;;;;26.30;19.35;;;14.30;99.90;;;;;;5091464;28;20439;-64
2022/10/30 05:04:55;;;;;;;25.73;19.55;;;14.30;99.90;;;;;;5091780;28;20066;-64
2022/10/30 05:07:21;;;;;;;24.50;19.95;;;14.30;99.90;;;;;;5091785;28;20020;-64
2022/10/30 05:09:46;;;;;;;27.00;20.67;;;14.30;99.90;;;;;;5091647;28;20059;-64
2022/10/30 05:12:12;;;;;;;24.52;19.88;;;14.30;99.90;;;;;;5091349;28;20038;-64
2022/10/30 05:14:38;;;;;;;26.23;21.05;;;14.10;99.90;;;;;;5092076;28;20372;-63
2022/10/30 05:17:03;;;;;;;28.15;21.63;;;14.30;99.90;;;;;;5091665;28;20056;-64
2022/10/30 05:19:29;;;;;;;26.98;20.63;;;14.20;99.90;;;;;;5091553;28;20444;-64
2022/10/30 05:21:55;;;;;;;27.80;21.02;;;14.20;99.90;;;;;;5091556;28;20111;-64
2022/10/30 05:24:20;;;;;;;26.63;20.58;;;14.20;99.90;;;;;;5091848;28;20032;-64
2022/10/30 05:26:46;;;;;;;30.65;22.00;;;14.20;99.90;;;;;;5091188;28;20482;-64
2022/10/30 05:29:12;;;;;;;28.20;22.50;;;14.10;99.90;;;;;;5091612;28;20397;-63
2022/10/30 05:31:39;;;;;;;28.02;21.20;;;14.10;99.90;;;;;;5091667;28;20024;-64
2022/10/30 05:34:05;;;;;;;29.80;21.90;;;14.20;99.90;;;;;;5091667;28;20028;-64
2022/10/30 05:36:30;;;;;;;28.02;21.23;;;14.10;99.90;;;;;;5091517;28;20418;-64
2022/10/30 05:38:56;;;;;;;27.60;21.80;;;14.10;99.90;;;;;;5091412;28;20463;-64
2022/10/30 05:41:22;;;;;;;25.88;20.45;;;14.10;99.90;;;;;;5090827;28;20036;-64
2022/10/30 05:43:47;;;;;;;27.00;21.40;;;14.10;99.90;;;;;;5091699;28;20031;-64
2022/10/30 05:46:13;;;;;;;27.42;20.63;;;14.10;99.90;;;;;;5091730;28;20017;-64
2022/10/30 05:48:39;;;;;;;25.90;20.73;;;14.10;99.90;;;;;;5091404;28;20103;-64
2022/10/30 05:51:05;;;;;;;28.50;21.52;;;14.10;99.90;;;;;;5091264;28;20032;-64
2022/10/30 05:53:31;;;;;;;24.25;20.52;;;14.10;99.90;;;;;;5091427;28;20099;-64
2022/10/30 05:55:58;;;;;;;26.42;19.85;;;14.10;99.90;;;;;;5091125;28;20167;-63
2022/10/30 05:58:24;;;;;;;26.02;20.42;;;14.00;99.90;;;;;;5091465;28;20487;-64
2022/10/30 06:00:49;;;;;;;31.20;21.52;;;14.00;99.90;;;;;;5091129;28;20028;-64
2022/10/30 06:03:15;;;;;;;24.95;20.67;;;14.00;99.90;;;;;;5091639;28;20024;-64
2022/10/30 06:05:44;;;;;;;27.58;21.73;;;14.00;99.90;;;;;;5091433;28;20020;-63
2022/10/30 06:08:10;;;;;;;27.55;21.88;;;14.00;99.90;;;;;;5091135;28;20032;-64
2022/10/30 06:10:36;;;;;;;29.48;21.80;;;14.00;99.90;;;;;;5090746;28;20480;-64
2022/10/30 06:13:04;;;;;;;27.80;21.05;;;14.00;99.90;;;;;;5092429;28;20031;-64
2022/10/30 06:15:31;;;;;;;27.35;22.27;;;14.00;99.90;;;;;;5094759;28;20028;-64
2022/10/30 06:17:56;;;;;;;26.95;21.60;;;14.00;99.90;;;;;;5094626;28;20084;-63
2022/10/30 06:20:25;;;;;;;31.73;22.63;;;13.90;99.90;;;;;;5094590;28;20020;-64
2022/10/30 06:22:57;;;;;;;26.05;21.27;;;13.90;99.90;;;;;;5094917;28;20077;-64
2022/10/30 06:25:24;;;;;;;26.48;21.65;;;13.90;99.90;;;;;;5094520;28;20020;-64
2022/10/30 06:27:50;;;;;;;32.08;23.10;;;13.90;99.90;;;;;;5094698;28;20028;-64
2022/10/30 06:30:17;;;;;;;28.40;23.73;;;13.90;99.90;;;;;;5094704;28;20028;-64
2022/10/30 06:32:42;;;;;;;28.25;22.50;;;13.90;99.90;;;;;;5094541;28;20398;-63
2022/10/30 06:35:08;;;;;;;28.92;21.90;;;13.90;99.90;;;;;;5094323;28;20024;-64
2022/10/30 06:37:34;;;;;;;25.23;21.65;;;13.90;99.90;;;;;;5093168;28;20127;-64
2022/10/30 06:40:00;;;;;;;26.73;21.77;;;14.00;99.90;;;;;;5093584;28;20016;-64
2022/10/30 06:42:26;;;;;;;29.65;21.38;;;13.90;99.90;;;;;;5094749;28;20567;-64
2022/10/30 06:44:52;;;;;;;31.58;22.50;;;13.90;99.90;;;;;;5094243;28;20375;-63
2022/10/30 06:47:17;;;;;;;26.88;22.17;;;13.80;99.90;;;;;;5092931;28;20443;-64
2022/10/30 06:49:43;;;;;;;27.13;22.83;;;13.60;99.90;;;;;;5094397;28;20394;-64
2022/10/30 06:52:09;;;;;;;26.27;21.90;;;13.70;99.90;;;;;;5094320;28;20547;-64
2022/10/30 06:54:34;;;;;;;28.13;23.63;;;13.80;99.90;;;;;;5094048;28;20071;-64
2022/10/30 06:57:00;;;;;;;27.40;22.73;;;13.80;99.90;;;;;;5093864;28;20028;-64
2022/10/30 06:59:26;;;;;;;31.15;22.45;;;13.70;99.90;;;;;;5094078;28;20107;-64
2022/10/30 07:01:52;;;;;;;28.58;22.13;;;13.80;99.90;;;;;;5093209;28;20034;-64
2022/10/30 07:04:18;;;;;;;28.20;20.23;;;13.80;99.90;;;;;;5093952;28;20028;-64
2022/10/30 07:06:43;;;;;;;28.60;20.77;;;14.00;99.90;;;;;;5093478;28;20443;-63
2022/10/30 07:09:09;;;;;;;26.05;20.27;;;14.20;99.90;;;;;;5093725;28;20025;-63
2022/10/30 07:11:35;;;;;;;26.05;21.02;;;14.20;99.90;;;;;;5094216;28;20028;-64
2022/10/30 07:14:00;;;;;;;27.27;21.63;;;14.10;99.90;;;;;;5093882;28;20063;-64
2022/10/30 07:16:26;;;;;;;27.65;21.42;;;14.10;99.90;;;;;;5093627;28;20382;-64
2022/10/30 07:18:52;;;;;;;22.27;19.80;;;14.10;99.90;;;;;;5093685;28;20028;-64
2022/10/30 07:21:18;;;;;;;26.70;20.92;;;14.10;99.90;;;;;;5093331;28;20433;-63
2022/10/30 07:23:43;;;;;;;27.83;20.90;;;14.20;99.90;;;;;;5093508;28;20498;-64
2022/10/30 07:26:09;;;;;;;25.17;20.02;;;14.20;99.90;;;;;;5092932;28;20023;-63
2022/10/30 07:28:35;;;;;;;23.10;19.33;;;14.30;99.90;;;;;;5093226;28;20051;-63
2022/10/30 07:31:00;;;;;;;24.70;19.67;;;14.40;99.90;;;;;;5093834;28;20035;-64
2022/10/30 07:33:26;;;;;;;26.42;19.55;;;14.50;99.90;;;;;;5093311;28;20024;-64
2022/10/30 07:35:52;;;;;;;21.13;17.52;;;14.50;99.90;;;;;;5092670;28;20028;-64
2022/10/30 07:38:17;;;;;;;24.85;18.55;;;14.50;99.90;;;;;;5093145;28;20418;-64
2022/10/30 07:40:43;;;;;;;25.00;19.75;;;14.70;99.90;;;;;;5092921;28;20044;-63
2022/10/30 07:43:12;;;;;;;26.98;19.45;;;14.50;99.90;;;;;;5093510;28;20027;-64
2022/10/30 07:45:38;;;;;;;23.45;19.15;;;14.60;99.90;;;;;;5093158;28;20039;-64
2022/10/30 07:48:04;;;;;;;24.83;18.58;;;14.60;99.90;;;;;;5092905;28;20077;-64
2022/10/30 07:50:31;;;;;;;27.40;18.55;;;14.70;99.90;;;;;;5092713;28;20395;-64
2022/10/30 07:52:57;;;;;;;24.30;18.48;;;14.80;99.90;;;;;;5092723;28;20047;-63
2022/10/30 07:55:23;;;;;;;24.20;18.48;;;14.90;99.90;;;;;;5093004;28;20028;-64
2022/10/30 07:57:49;;;;;;;21.20;17.70;;;15.10;99.90;;;;;;5092621;28;20036;-64
2022/10/30 08:00:17;;;;;;;23.77;17.67;;;15.40;99.90;;;;;;5092694;28;20050;-64
2022/10/30 08:02:43;;;;;;;25.27;16.95;;;15.60;99.90;;;;;;5092454;28;20363;-63
2022/10/30 08:05:09;;;;;;;21.48;15.82;;;16.00;99.90;;;;;;5092480;28;20046;-64
2022/10/30 08:07:36;;;;;;;20.40;15.10;;;16.90;99.90;;;;;;5092079;28;20498;-64
2022/10/30 08:10:03;;;;;;;19.35;14.88;;;17.30;99.90;;;;;;5092789;28;20431;-64
2022/10/30 08:12:31;;;;;;;21.10;14.63;;;17.40;99.90;;;;;;5092516;28;20048;-64
2022/10/30 08:14:57;;;;;;;19.70;13.90;;;17.50;99.90;;;;;;5092430;28;20039;-64
2022/10/30 08:17:23;;;;;;;18.40;13.60;;;17.60;99.90;;;;;;5092279;28;20040;-63
2022/10/30 08:19:48;;;;;;;19.27;14.43;;;17.40;99.90;;;;;;5090874;28;20497;-64
2022/10/30 08:22:14;;;;;;;21.95;14.00;;;17.40;99.90;;;;;;5092155;28;20032;-64
2022/10/30 08:24:40;;;;;;;16.67;12.73;;;17.60;99.90;;;;;;5092258;28;20028;-63
2022/10/30 08:27:06;;;;;;;16.58;12.75;;;17.70;99.90;;;;;;5092243;28;20107;-64
2022/10/30 08:29:33;;;;;;;17.80;12.60;;;18.20;99.90;;;;;;5092047;28;20474;-64
2022/10/30 08:31:59;;;;;;;18.05;11.90;;;18.50;99.90;;;;;;5092553;28;20575;-63
2022/10/30 08:34:26;;;;;;;19.27;12.25;;;18.80;99.90;;;;;;5091554;28;20048;-64
2022/10/30 08:36:52;;;;;;;16.13;11.77;;;18.90;99.90;;;;;;5091251;28;20036;-63
2022/10/30 08:39:18;;;;;;;15.55;12.02;;;19.40;99.90;;;;;;5092360;28;20106;-64
2022/10/30 08:41:44;;;;;;;18.15;12.90;;;19.40;99.90;;;;;;5091953;28;20218;-64
2022/10/30 08:44:10;;;;;;;17.35;12.70;;;18.90;99.90;;;;;;5092216;28;20036;-64
2022/10/30 08:46:36;;;;;;;22.08;12.10;;;18.90;99.90;;;;;;5091908;28;20024;-64
2022/10/30 08:49:01;;;;;;;16.45;12.45;;;19.10;99.90;;;;;;5091891;28;20371;-64
2022/10/30 08:51:30;;;;;;;15.23;10.68;;;19.50;99.90;;;;;;5091462;28;20050;-64
2022/10/30 08:53:56;;;;;;;18.08;11.23;;;20.00;99.90;;;;;;5091806;28;20053;-63
2022/10/30 08:56:21;;;;;;;16.05;10.98;;;20.70;99.90;;;;;;5092205;28;20433;-64
2022/10/30 08:58:48;;;;;;;12.98;9.43;;;21.20;99.90;;;;;;5091596;28;20110;-64
2022/10/30 09:01:14;;;;;;;13.75;10.25;;;21.90;99.90;;;;;;5091795;28;20367;-64
2022/10/30 09:03:41;;;;;;;15.23;10.10;;;21.80;99.90;;;;;;5091353;28;20032;-64
2022/10/30 09:06:07;;;;;;;13.68;10.18;;;21.60;99.90;;;;;;5092056;28;20077;-64
2022/10/30 09:08:33;;;;;;;16.58;10.77;;;22.20;99.90;;;;;;5091601;28;20024;-64
2022/10/30 09:10:59;;;;;;;21.27;10.95;;;22.50;99.90;;;;;;5091691;28;20466;-64
2022/10/30 09:13:25;;;;;;;16.48;10.57;;;22.10;99.90;;;;;;5091693;28;20024;-64
2022/10/30 09:15:51;;;;;;;14.55;9.88;;;22.80;99.90;;;;;;5091836;28;20028;-64
2022/10/30 09:18:16;;;;;;;15.05;9.80;;;23.00;99.90;;;;;;5091260;28;20490;-64
2022/10/30 09:20:42;;;;;;;15.73;9.63;;;22.40;99.90;;;;;;5091359;28;20027;-64
2022/10/30 09:23:08;;;;;;;15.30;10.13;;;22.90;99.90;;;;;;5091639;28;20503;-64
2022/10/30 09:25:34;;;;;;;15.98;10.05;;;23.20;99.90;;;;;;5091943;28;20028;-64
2022/10/30 09:28:00;;;;;;;13.63;9.35;;;23.20;99.90;;;;;;5091536;28;20020;-64
2022/10/30 09:30:25;;;;;;;14.70;9.60;;;23.20;99.90;;;;;;5091637;28;20034;-64
2022/10/30 09:32:58;;;;;;;16.35;8.80;;;23.30;99.90;;;;;;5091046;28;20021;-63
2022/10/30 09:35:25;;;;;;;12.40;8.38;;;23.60;99.90;;;;;;5090056;28;20501;-64
2022/10/30 09:37:50;;;;;;;11.45;8.48;;;24.20;99.90;;;;;;5091356;28;20040;-64
2022/10/30 09:40:33;;;;;;;14.40;9.68;;;24.90;99.90;;;;;;5091502;28;20042;-64
2022/10/30 09:43:20;;;;;;;13.65;9.10;;;25.10;99.90;;;;;;5091304;28;20097;-64
2022/10/30 09:46:03;;;;;;;15.13;8.75;;;25.10;99.90;;;;;;5091272;28;20028;-64
2022/10/30 09:48:40;;;;;;;10.43;7.72;;;25.00;99.90;;;;;;5092838;28;20393;-64
2022/10/30 09:52:07;;;;;;;14.18;8.80;;;25.50;99.90;;;;;;5095184;28;20442;-64
2022/10/30 09:54:59;;;;;;;11.82;8.63;;;26.10;99.90;;;;;;5089821;28;20451;-64
2022/10/30 09:57:45;;;;;;;11.85;8.70;;;25.90;99.90;;;;;;5092687;28;20044;-63
2022/10/30 10:00:16;;;;;;;13.05;8.98;;;25.50;99.90;;;;;;5092616;28;20051;-66
2022/10/30 10:02:44;;;;;;;8.23;7.20;;;25.40;99.90;;;;;;5092750;28;20446;-64
2022/10/30 10:05:25;;;;;;;10.50;7.07;;;25.90;99.90;;;;;;5092659;28;20119;-63
2022/10/30 10:07:59;;;;;;;13.57;7.60;;;26.20;99.90;;;;;;5092586;28;20039;-64
2022/10/30 10:10:44;;;;;;;13.60;8.10;;;26.10;99.90;;;;;;5092699;28;20020;-64
2022/10/30 10:13:31;;;;;;;15.25;8.23;;;25.90;99.90;;;;;;5092718;28;20489;-63
2022/10/30 10:16:25;;;;;;;10.05;7.25;;;25.60;99.90;;;;;;5091832;28;20036;-63
2022/10/30 10:19:21;;;;;;;19.23;7.88;;;25.40;99.90;;;;;;5089572;28;20032;-63
2022/10/30 10:22:16;;;;;;;12.75;8.40;;;24.90;99.90;;;;;;4992801;28;20042;-63
2022/10/30 10:24:46;;;;;;;11.98;7.97;;;25.70;99.90;;;;;;4989363;28;20031;-64
2022/10/30 10:27:48;;;;;;;14.88;7.75;;;25.70;99.90;;;;;;4995376;28;20077;-63
2022/10/30 10:30:19;;;;;;;15.07;7.22;;;25.80;99.90;;;;;;5011917;28;20026;-63
2022/10/30 10:32:50;;;;;;;13.38;6.82;;;25.40;99.90;;;;;;5012353;28;20222;-64
2022/10/30 10:35:37;;;;;;;14.40;6.82;;;24.90;99.90;;;;;;4999903;28;20508;-63
2022/10/30 10:38:36;;;;;;;10.82;6.07;;;25.10;99.90;;;;;;4992616;28;20038;-63
2022/10/30 10:41:32;;;;;;;16.88;6.10;;;25.40;99.90;;;;;;4992386;28;20614;-64
2022/10/30 10:44:16;;;;;;;13.93;5.68;;;25.80;99.90;;;;;;4992809;28;20088;-63
2022/10/30 10:47:01;;;;;;;10.57;5.40;;;24.30;99.90;;;;;;4992901;28;20128;-63
2022/10/30 10:49:42;;;;;;;11.00;5.38;;;24.60;99.90;;;;;;4976570;28;20193;-63
2022/10/30 10:52:09;;;;;;;9.38;4.88;;;24.30;99.90;;;;;;4992406;28;20076;-63
2022/10/30 10:54:53;;;;;;;14.07;6.13;;;25.20;99.90;;;;;;4992245;28;20031;-63
2022/10/30 10:57:31;;;;;;;10.63;5.47;;;25.00;99.90;;;;;;4992085;28;20400;-64
2022/10/30 11:00:13;;;;;;;13.10;5.90;;;24.50;99.90;;;;;;5072172;28;20482;-64
2022/10/30 11:02:41;;;;;;;10.75;5.25;;;24.40;99.90;;;;;;5073983;28;20084;-63
2022/10/30 11:05:17;;;;;;;12.18;5.35;;;24.70;99.90;;;;;;5073643;28;20487;-64
2022/10/30 11:07:48;;;;;;;11.13;5.00;;;23.20;99.90;;;;;;5073707;28;20024;-63
2022/10/30 11:10:16;;;;;;;13.73;5.18;;;24.30;99.90;;;;;;5073987;28;20028;-64
2022/10/30 11:12:42;;;;;;;12.18;4.95;;;23.40;99.90;;;;;;5073527;28;20035;-63
2022/10/30 11:15:53;;;;;;;10.98;5.10;;;23.80;99.90;;;;;;5073197;28;20025;-64
2022/10/30 11:18:18;;;;;;;11.18;4.68;;;24.40;99.90;;;;;;5070841;28;20056;-64
2022/10/30 11:21:13;;;;;;;13.13;4.95;;;24.70;99.90;;;;;;5074062;28;20036;-63
2022/10/30 11:23:42;;;;;;;8.80;4.95;;;24.70;99.90;;;;;;5091143;28;20063;-63
2022/10/30 11:26:17;;;;;;;11.60;4.55;;;24.20;99.90;;;;;;5091116;28;20103;-64
2022/10/30 11:28:42;;;;;;;11.95;5.32;;;23.60;99.90;;;;;;5090864;28;20036;-64
2022/10/30 11:31:33;;;;;;;10.05;5.10;;;23.60;99.90;;;;;;5091225;28;20035;-64
2022/10/30 11:34:19;;;;;;;14.35;5.07;;;24.10;99.90;;;;;;5090929;28;20512;-64
2022/10/30 11:36:49;;;;;;;11.07;4.78;;;23.50;99.90;;;;;;5080337;28;20044;-64
2022/10/30 11:39:20;;;;;;;10.85;5.20;;;24.00;99.90;;;;;;5091040;28;20050;-64
2022/10/30 11:42:09;;;;;;;13.48;5.35;;;24.30;99.90;;;;;;5090958;28;20083;-64
2022/10/30 11:44:40;;;;;;;12.73;5.68;;;23.20;99.90;;;;;;5090800;28;20067;-64
2022/10/30 11:47:07;;;;;;;8.68;4.82;;;23.90;99.90;;;;;;5090914;28;20020;-63
2022/10/30 11:49:39;;;;;;;10.40;4.97;;;24.50;99.90;;;;;;5090694;28;20040;-64
2022/10/30 11:52:05;;;;;;;12.77;5.25;;;24.40;99.90;;;;;;5091115;28;20429;-64
2022/10/30 11:54:36;;;;;;;10.60;5.78;;;24.50;99.90;;;;;;5085686;28;20037;-63
2022/10/30 11:57:03;;;;;;;13.93;5.60;;;24.20;99.90;;;;;;5072184;28;20028;-63
2022/10/30 11:59:29;;;;;;;8.52;5.30;;;23.40;99.90;;;;;;5072613;28;20047;-64
2022/10/30 12:02:19;;;;;;;12.13;5.28;;;23.40;99.90;;;;;;5072582;28;20526;-63
2022/10/30 12:04:44;;;;;;;9.93;5.03;;;23.10;99.90;;;;;;5072483;28;20028;-64
2022/10/30 12:07:22;;;;;;;12.30;4.90;;;23.50;99.90;;;;;;5072726;28;20032;-64
2022/10/30 12:09:48;;;;;;;7.90;4.70;;;24.10;99.90;;;;;;5072614;28;20539;-64
2022/10/30 12:12:40;;;;;;;10.38;4.55;;;24.10;99.90;;;;;;5071738;28;20081;-63
2022/10/30 12:15:12;;;;;;;12.20;5.22;;;24.20;99.90;;;;;;5072400;28;20116;-64
2022/10/30 12:17:39;;;;;;;10.82;4.78;;;24.30;99.90;;;;;;5072496;28;20078;-64
2022/10/30 12:20:12;;;;;;;10.50;4.32;;;23.90;99.90;;;;;;5080712;28;20027;-63
2022/10/30 12:22:38;;;;;;;8.32;4.60;;;24.00;99.90;;;;;;5092441;28;20031;-63
2022/10/30 12:25:23;;;;;;;12.10;5.03;;;24.10;99.90;;;;;;5092411;28;20470;-64
2022/10/30 12:27:56;;;;;;;13.68;5.22;;;23.00;99.90;;;;;;5090835;28;20047;-64
2022/10/30 12:30:23;;;;;;;11.23;5.00;;;22.60;99.90;;;;;;5092289;28;20107;-64
2022/10/30 12:33:26;;;;;;;11.80;4.72;;;22.80;99.90;;;;;;5092553;28;20032;-64
2022/10/30 12:36:00;;;;;;;13.30;4.90;;;23.40;99.90;;;;;;5091811;28;20032;-63
2022/10/30 12:38:26;;;;;;;9.05;4.45;;;23.40;99.90;;;;;;5092172;28;20036;-64
2022/10/30 12:41:13;;;;;;;9.55;4.70;;;23.20;99.90;;;;;;5091554;28;20131;-63
2022/10/30 12:43:44;;;;;;;8.90;4.53;;;23.50;99.90;;;;;;5092204;28;20020;-63
2022/10/30 12:46:28;;;;;;;8.02;4.72;;;23.30;99.90;;;;;;5092511;28;20036;-63